createdAt,value
2019-02-27T00:00:37.691Z,2.55
2019-02-27T00:03:21.182Z,2.70
2019-02-27T00:06:03.192Z,4.05
2019-02-27T00:08:41.346Z,2.95
2019-02-27T00:11:19.118Z,3.92
2019-02-27T00:13:59.863Z,2.25
2019-02-27T00:16:44.649Z,2.37
2019-02-27T00:19:30.947Z,2.50
2019-02-27T00:22:09.896Z,2.10
2019-02-27T00:24:48.944Z,3.15
2019-02-27T00:27:31.565Z,2.65
2019-02-27T00:30:20.798Z,2.37
2019-02-27T00:33:01.569Z,2.08
2019-02-27T00:35:39.635Z,2.05
2019-02-27T00:38:25.161Z,2.30
2019-02-27T00:41:06.706Z,3.83
2019-02-27T00:43:46.700Z,6.47
2019-02-27T00:46:31.472Z,3.22
2019-02-27T00:49:14.607Z,2.77
2019-02-27T00:51:56.956Z,5.85
2019-02-27T00:54:39.410Z,2.02
2019-02-27T00:57:20.522Z,2.17
2019-02-27T00:59:58.608Z,2.85
2019-02-27T01:02:40.309Z,3.90
2019-02-27T01:05:23.378Z,3.15
2019-02-27T01:08:05.811Z,2.33
2019-02-27T01:10:45.280Z,2.70
2019-02-27T01:13:21.547Z,3.00
2019-02-27T01:16:05.891Z,2.35
2019-02-27T01:18:50.934Z,2.87
2019-02-27T01:21:34.287Z,3.40
2019-02-27T01:24:15.021Z,2.65
2019-02-27T01:26:59.088Z,3.27
2019-02-27T01:29:41.671Z,3.35
2019-02-27T01:32:19.690Z,3.58
2019-02-27T01:35:00.019Z,3.47
2019-02-27T01:37:40.992Z,4.50
2019-02-27T01:40:24.088Z,2.70
2019-02-27T01:43:05.564Z,2.80
2019-02-27T01:45:41.922Z,3.50
2019-02-27T01:48:24.323Z,4.67
2019-02-27T01:51:03.923Z,3.67
2019-02-27T01:53:46.947Z,3.45
2019-02-27T01:56:29.727Z,4.12
2019-02-27T01:59:16.682Z,3.67
2019-02-27T02:01:56.999Z,3.62
2019-02-27T02:04:36.598Z,5.85
2019-02-27T02:07:24.629Z,3.92
2019-02-27T02:10:04.198Z,2.62
2019-02-27T02:12:44.087Z,3.52
2019-02-27T02:15:33.931Z,5.60
2019-02-27T02:18:49.936Z,3.25
2019-02-27T02:22:06.074Z,3.45
2019-02-27T02:25:05.836Z,3.20
2019-02-27T02:28:00.136Z,3.37
2019-02-27T02:30:47.440Z,2.80
2019-02-27T02:33:31.236Z,4.87
2019-02-27T02:36:15.010Z,4.67
2019-02-27T02:39:19.168Z,3.60
2019-02-27T02:42:00.759Z,3.50
2019-02-27T02:44:57.083Z,5.75
2019-02-27T02:47:55.427Z,3.33
2019-02-27T02:50:40.941Z,3.80
2019-02-27T02:53:26.310Z,4.00
2019-02-27T02:56:16.215Z,5.50
2019-02-27T02:59:24.954Z,4.78
2019-02-27T03:02:06.946Z,5.30
2019-02-27T03:04:54.966Z,4.65
2019-02-27T03:07:56.049Z,5.58
2019-02-27T03:10:56.798Z,3.47
2019-02-27T03:13:42.742Z,3.90
2019-02-27T03:16:32.429Z,4.55
2019-02-27T03:19:47.425Z,3.00
2019-02-27T03:22:59.334Z,3.55
2019-02-27T03:25:43.053Z,2.87
2019-02-27T03:28:45.754Z,4.08
2019-02-27T03:31:46.357Z,2.65
2019-02-27T03:34:27.356Z,2.85
2019-02-27T03:37:18.156Z,2.95
2019-02-27T03:40:34.103Z,3.92
2019-02-27T03:43:31.958Z,3.37
2019-02-27T03:46:25.560Z,4.25
2019-02-27T03:49:28.259Z,3.67
2019-02-27T03:52:16.723Z,6.25
2019-02-27T03:55:11.941Z,4.28
2019-02-27T03:57:56.445Z,4.78
2019-02-27T04:01:02.636Z,4.92
2019-02-27T04:03:54.288Z,4.60
2019-02-27T04:07:01.037Z,5.33
2019-02-27T04:09:43.036Z,7.33
2019-02-27T04:12:20.967Z,5.17
2019-02-27T04:15:00.570Z,6.10
2019-02-27T04:17:41.282Z,5.20
2019-02-27T04:20:28.266Z,7.22
2019-02-27T04:23:12.855Z,6.47
2019-02-27T04:25:54.339Z,6.40
2019-02-27T04:28:37.442Z,6.83
2019-02-27T04:31:21.180Z,7.83
2019-02-27T04:34:02.875Z,7.42
2019-02-27T04:36:46.990Z,8.55
2019-02-27T04:39:24.638Z,6.25
2019-02-27T04:42:04.819Z,7.58
2019-02-27T04:44:42.776Z,6.85
2019-02-27T04:47:23.077Z,6.65
2019-02-27T04:50:03.393Z,5.85
2019-02-27T04:52:44.379Z,7.97
2019-02-27T04:55:26.751Z,8.20
2019-02-27T04:58:08.987Z,6.12
2019-02-27T05:00:45.986Z,8.18
2019-02-27T05:03:25.838Z,7.95
2019-02-27T05:06:08.684Z,6.20
2019-02-27T05:08:49.684Z,8.08
2019-02-27T05:11:32.057Z,5.92
2019-02-27T05:14:11.615Z,7.42
2019-02-27T05:16:50.555Z,6.45
2019-02-27T05:19:29.487Z,6.47
2019-02-27T05:22:11.909Z,7.28
2019-02-27T05:24:50.595Z,6.60
2019-02-27T05:27:31.761Z,5.80
2019-02-27T05:30:14.864Z,6.50
2019-02-27T05:32:55.191Z,8.25
2019-02-27T05:35:39.698Z,7.70
2019-02-27T05:38:17.893Z,5.15
2019-02-27T05:41:02.824Z,5.67
2019-02-27T05:43:47.512Z,5.97
2019-02-27T05:46:23.398Z,6.42
2019-02-27T05:49:03.671Z,6.08
2019-02-27T05:51:40.120Z,6.47
2019-02-27T05:54:34.366Z,5.00
2019-02-27T05:57:11.899Z,5.37
2019-02-27T05:59:52.199Z,6.65
2019-02-27T06:02:30.881Z,6.25
2019-02-27T06:05:12.069Z,6.47
2019-02-27T06:07:52.367Z,5.58
2019-02-27T06:10:34.075Z,6.00
2019-02-27T06:13:14.728Z,4.25
2019-02-27T06:15:52.679Z,4.87
2019-02-27T06:18:39.461Z,4.58
2019-02-27T06:21:18.106Z,7.80
2019-02-27T06:24:02.608Z,6.80
2019-02-27T06:26:40.079Z,5.67
2019-02-27T06:29:28.810Z,8.18
2019-02-27T06:32:11.897Z,7.67
2019-02-27T06:34:49.386Z,5.50
2019-02-27T06:37:28.312Z,6.65
2019-02-27T06:40:11.161Z,6.17
2019-02-27T06:42:53.889Z,7.80
2019-02-27T06:45:31.317Z,5.92
2019-02-27T06:48:14.895Z,7.08
2019-02-27T06:51:04.517Z,6.78
2019-02-27T06:53:43.642Z,7.65
2019-02-27T06:56:25.904Z,8.88
2019-02-27T06:59:10.359Z,7.75
2019-02-27T07:04:36.455Z,6.33
2019-02-27T07:07:19.303Z,8.17
2019-02-27T07:09:58.086Z,8.38
2019-02-27T07:12:45.095Z,9.60
2019-02-27T07:15:26.825Z,5.90
2019-02-27T07:18:07.124Z,7.28
2019-02-27T07:20:50.947Z,10.25
2019-02-27T07:23:38.899Z,7.67
2019-02-27T07:26:16.594Z,7.87
2019-02-27T07:29:00.214Z,9.80
2019-02-27T07:31:41.071Z,8.25
2019-02-27T07:34:23.876Z,7.70
2019-02-27T07:37:10.442Z,10.85
2019-02-27T07:39:48.307Z,9.15
2019-02-27T07:42:31.975Z,10.30
2019-02-27T07:45:08.096Z,7.30
2019-02-27T07:47:51.405Z,8.63
2019-02-27T07:50:32.915Z,8.50
2019-02-27T07:53:17.498Z,8.65
2019-02-27T07:55:56.509Z,7.97
2019-02-27T07:58:39.638Z,7.22
2019-02-27T08:01:23.535Z,10.20
2019-02-27T08:04:06.893Z,6.12
2019-02-27T08:06:43.317Z,8.55
2019-02-27T08:09:22.909Z,12.55
2019-02-27T08:12:11.643Z,7.50
2019-02-27T08:14:47.667Z,10.80
2019-02-27T08:17:28.424Z,6.37
2019-02-27T08:20:14.645Z,7.25
2019-02-27T08:22:55.759Z,5.55
2019-02-27T08:25:38.261Z,6.33
2019-02-27T08:28:17.306Z,7.00
2019-02-27T08:30:55.821Z,8.70
2019-02-27T08:33:35.856Z,7.50
2019-02-27T08:36:14.781Z,7.95
2019-02-27T08:38:56.744Z,8.40
2019-02-27T08:41:35.625Z,8.35
2019-02-27T08:44:12.283Z,7.22
2019-02-27T08:46:48.322Z,7.28
2019-02-27T08:49:24.962Z,6.00
2019-02-27T08:51:55.866Z,6.85
2019-02-27T08:54:33.065Z,9.25
2019-02-27T08:57:06.144Z,8.68
2019-02-27T08:59:39.859Z,8.35
2019-02-27T09:02:13.144Z,10.15
2019-02-27T09:04:50.040Z,7.58
2019-02-27T09:07:24.039Z,9.73
2019-02-27T09:10:02.950Z,10.63
2019-02-27T09:12:30.115Z,9.23
2019-02-27T09:15:02.796Z,9.05
2019-02-27T09:17:38.241Z,11.10
2019-02-27T09:20:29.356Z,9.25
2019-02-27T09:23:05.926Z,15.40
2019-02-27T09:25:43.222Z,12.30
2019-02-27T09:28:24.039Z,12.00
2019-02-27T09:31:04.263Z,9.88
2019-02-27T09:33:42.568Z,13.72
2019-02-27T09:36:23.533Z,11.70
2019-02-27T09:39:01.744Z,9.58
2019-02-27T09:41:46.116Z,12.75
2019-02-27T09:44:22.373Z,7.87
2019-02-27T09:47:01.195Z,14.18
2019-02-27T09:49:35.101Z,9.85
2019-02-27T09:52:12.904Z,9.43
2019-02-27T09:54:51.418Z,9.98
2019-02-27T09:57:35.305Z,12.00
2019-02-27T10:00:28.500Z,9.63
2019-02-27T10:03:02.718Z,11.60
2019-02-27T10:05:37.558Z,9.10
2019-02-27T10:08:21.211Z,10.40
2019-02-27T10:10:59.046Z,9.10
2019-02-27T10:13:35.473Z,11.65
2019-02-27T10:16:12.638Z,8.80
2019-02-27T10:18:49.650Z,10.08
2019-02-27T10:21:34.686Z,13.30
2019-02-27T10:24:12.852Z,8.95
2019-02-27T10:26:55.144Z,11.08
2019-02-27T10:29:31.402Z,10.88
2019-02-27T10:32:11.148Z,11.30
2019-02-27T10:34:51.009Z,11.88
2019-02-27T10:37:30.225Z,9.83
2019-02-27T10:40:15.575Z,12.73
2019-02-27T10:42:51.422Z,12.33
2019-02-27T10:45:26.607Z,11.63
2019-02-27T10:48:05.850Z,14.28
2019-02-27T10:50:43.772Z,15.10
2019-02-27T10:53:20.068Z,11.05
2019-02-27T10:55:56.060Z,12.50
2019-02-27T10:58:28.911Z,11.25
2019-02-27T11:01:06.960Z,9.43
2019-02-27T11:03:47.142Z,13.38
2019-02-27T11:06:33.494Z,10.05
2019-02-27T11:08:57.807Z,13.10
2019-02-27T11:11:35.147Z,10.53
2019-02-27T11:14:15.658Z,14.60
2019-02-27T11:16:49.873Z,11.53
2019-02-27T11:19:22.966Z,11.53
2019-02-27T11:22:00.975Z,10.55
2019-02-27T11:24:34.164Z,10.38
2019-02-27T11:27:10.098Z,14.05
2019-02-27T11:29:44.544Z,10.95
2019-02-27T11:32:15.982Z,12.70
2019-02-27T11:34:49.804Z,14.53
2019-02-27T11:37:23.919Z,12.03
2019-02-27T11:39:57.765Z,16.40
2019-02-27T11:42:34.502Z,12.50
2019-02-27T11:45:07.900Z,12.75
2019-02-27T11:47:45.028Z,11.63
2019-02-27T11:50:19.202Z,12.43
2019-02-27T11:52:54.037Z,9.78
2019-02-27T11:55:28.002Z,16.77
2019-02-27T11:58:04.571Z,15.60
2019-02-27T12:00:35.593Z,10.70
2019-02-27T12:03:11.181Z,21.20
2019-02-27T12:05:48.295Z,13.48
2019-02-27T12:08:25.114Z,13.10
2019-02-27T12:10:55.038Z,17.98
2019-02-27T12:13:32.352Z,13.68
2019-02-27T12:16:07.310Z,12.50
2019-02-27T12:18:41.734Z,11.25
2019-02-27T12:21:14.004Z,14.98
2019-02-27T12:23:46.891Z,16.05
2019-02-27T12:26:23.793Z,14.05
2019-02-27T12:28:56.656Z,12.65
2019-02-27T12:31:33.346Z,14.90
2019-02-27T12:34:07.444Z,14.20
2019-02-27T12:36:41.867Z,10.85
2019-02-27T12:39:15.538Z,11.22
2019-02-27T12:41:50.809Z,14.87
2019-02-27T12:44:23.406Z,12.98
2019-02-27T12:46:56.379Z,13.13
2019-02-27T12:49:32.112Z,11.03
2019-02-27T12:52:09.016Z,13.03
2019-02-27T12:54:45.991Z,13.90
2019-02-27T12:57:26.765Z,12.60
2019-02-27T13:00:02.005Z,13.68
2019-02-27T13:02:35.964Z,12.00
2019-02-27T13:05:13.409Z,12.45
2019-02-27T13:07:46.862Z,11.25
2019-02-27T13:10:23.891Z,14.70
2019-02-27T13:13:01.490Z,12.53
2019-02-27T13:15:45.052Z,11.73
2019-02-27T13:18:31.935Z,12.90
2019-02-27T13:21:09.852Z,17.65
2019-02-27T13:23:53.317Z,10.93
2019-02-27T13:26:35.408Z,12.90
2019-02-27T13:29:13.964Z,16.60
2019-02-27T13:31:56.476Z,15.55
2019-02-27T13:34:39.758Z,14.05
2019-02-27T13:37:25.008Z,12.35
2019-02-27T13:40:11.954Z,11.33
2019-02-27T13:42:56.581Z,14.25
2019-02-27T13:48:31.340Z,15.80
2019-02-27T13:51:07.419Z,10.88
2019-02-27T13:53:46.368Z,13.58
2019-02-27T13:56:37.208Z,13.38
2019-02-27T13:59:23.752Z,12.70
2019-02-27T14:02:06.195Z,12.78
2019-02-27T14:04:49.942Z,15.35
2019-02-27T14:07:34.765Z,13.95
2019-02-27T14:10:20.519Z,12.63
2019-02-27T14:12:57.874Z,18.57
2019-02-27T14:15:37.476Z,15.28
2019-02-27T14:18:16.768Z,11.73
2019-02-27T14:20:58.959Z,14.15
2019-02-27T14:23:39.049Z,12.43
2019-02-27T14:26:20.781Z,16.02
2019-02-27T14:29:07.380Z,14.70
2019-02-27T14:31:47.104Z,13.08
2019-02-27T14:34:28.654Z,15.03
2019-02-27T14:37:16.198Z,14.40
2019-02-27T14:39:51.047Z,13.43
2019-02-27T14:42:28.894Z,15.15
2019-02-27T14:45:11.958Z,17.73
2019-02-27T14:47:51.587Z,11.78
2019-02-27T14:50:34.584Z,11.00
2019-02-27T14:53:11.508Z,17.77
2019-02-27T14:55:50.390Z,14.70
2019-02-27T14:58:29.241Z,16.90
2019-02-27T15:01:08.900Z,13.18
2019-02-27T15:03:51.965Z,12.47
2019-02-27T15:06:30.868Z,11.93
2019-02-27T15:09:11.001Z,8.65
2019-02-27T15:11:48.216Z,15.30
2019-02-27T15:14:27.597Z,17.42
2019-02-27T15:17:05.318Z,11.88
2019-02-27T15:19:46.070Z,12.75
2019-02-27T15:22:30.309Z,15.32
2019-02-27T15:25:16.500Z,13.35
2019-02-27T15:27:58.810Z,13.48
2019-02-27T15:30:41.074Z,16.93
2019-02-27T15:33:19.351Z,13.78
2019-02-27T15:36:00.694Z,13.05
2019-02-27T15:38:40.169Z,10.15
2019-02-27T15:41:21.963Z,10.32
2019-02-27T15:44:07.444Z,14.50
2019-02-27T15:46:53.541Z,13.40
2019-02-27T15:49:37.381Z,8.58
2019-02-27T15:52:17.011Z,12.05
2019-02-27T15:54:59.804Z,10.20
2019-02-27T15:57:37.020Z,10.45
2019-02-27T16:00:18.393Z,9.98
2019-02-27T16:02:56.113Z,12.82
2019-02-27T16:05:33.859Z,9.43
2019-02-27T16:08:08.290Z,11.00
2019-02-27T16:10:54.757Z,10.48
2019-02-27T16:13:24.833Z,9.15
2019-02-27T16:16:06.114Z,11.48
2019-02-27T16:18:46.019Z,17.52
2019-02-27T16:21:24.382Z,27.30
2019-02-27T16:24:01.062Z,25.82
2019-02-27T16:26:39.922Z,18.10
2019-02-27T16:29:22.809Z,11.68
2019-02-27T16:32:02.303Z,11.88
2019-02-27T16:34:40.127Z,11.55
2019-02-27T16:37:21.920Z,10.13
2019-02-27T16:39:59.301Z,12.75
2019-02-27T16:42:42.431Z,15.32
2019-02-27T16:45:24.106Z,12.10
2019-02-27T16:48:06.529Z,16.12
2019-02-27T16:50:50.330Z,19.37
2019-02-27T16:53:32.003Z,20.32
2019-02-27T16:56:16.876Z,18.57
2019-02-27T16:58:58.818Z,18.85
2019-02-27T17:01:42.705Z,19.27
2019-02-27T17:04:23.120Z,14.98
2019-02-27T17:07:10.861Z,18.27
2019-02-27T17:09:49.904Z,23.00
2019-02-27T17:12:25.720Z,31.02
2019-02-27T17:15:07.038Z,22.95
2019-02-27T17:17:50.559Z,26.87
2019-02-27T17:20:33.260Z,20.88
2019-02-27T17:23:12.140Z,23.25
2019-02-27T17:25:53.142Z,15.58
2019-02-27T17:28:33.443Z,19.75
2019-02-27T17:31:21.147Z,20.50
2019-02-27T17:34:04.544Z,25.57
2019-02-27T17:36:42.580Z,27.65
2019-02-27T17:39:29.865Z,32.35
2019-02-27T17:42:07.547Z,28.67
2019-02-27T17:44:48.879Z,21.55
2019-02-27T17:47:31.289Z,20.82
2019-02-27T17:50:10.521Z,21.45
2019-02-27T17:52:49.823Z,15.23
2019-02-27T17:55:28.323Z,14.40
2019-02-27T17:58:06.555Z,20.65
2019-02-27T18:00:51.076Z,16.17
2019-02-27T18:03:41.524Z,17.52
2019-02-27T18:06:17.922Z,24.15
2019-02-27T18:08:59.583Z,20.10
2019-02-27T18:11:38.561Z,27.73
2019-02-27T18:14:13.354Z,30.52
2019-02-27T18:16:52.830Z,26.83
2019-02-27T18:19:31.431Z,26.00
2019-02-27T18:22:18.332Z,53.28
2019-02-27T18:24:57.241Z,41.98
2019-02-27T18:27:37.533Z,48.65
2019-02-27T18:30:29.623Z,25.30
2019-02-27T18:33:06.831Z,19.85
2019-02-27T18:35:44.064Z,17.25
2019-02-27T18:38:27.559Z,13.30
2019-02-27T18:41:04.669Z,14.45
2019-02-27T18:43:46.716Z,14.55
2019-02-27T18:46:25.576Z,13.98
2019-02-27T18:49:05.530Z,19.25
2019-02-27T18:51:56.371Z,20.48
2019-02-27T18:54:41.223Z,18.98
2019-02-27T18:57:22.570Z,24.52
2019-02-27T19:00:02.872Z,18.95
2019-02-27T19:02:40.378Z,19.62
2019-02-27T19:05:19.941Z,15.43
2019-02-27T19:07:56.528Z,20.30
2019-02-27T19:10:42.484Z,16.95
2019-02-27T19:13:16.922Z,13.55
2019-02-27T19:15:57.726Z,15.03
2019-02-27T19:18:41.944Z,18.87
2019-02-27T19:21:21.123Z,22.67
2019-02-27T19:24:03.032Z,26.77
2019-02-27T19:26:46.940Z,29.40
2019-02-27T19:29:26.181Z,28.17
2019-02-27T19:32:04.382Z,26.57
2019-02-27T19:34:41.549Z,19.42
2019-02-27T19:37:24.283Z,23.25
2019-02-27T19:40:01.785Z,19.95
2019-02-27T19:42:44.425Z,16.45
2019-02-27T19:45:35.726Z,24.00
2019-02-27T19:48:20.405Z,20.62
2019-02-27T19:50:57.692Z,23.02
2019-02-27T19:53:39.593Z,23.00
2019-02-27T19:56:20.191Z,18.40
2019-02-27T19:58:59.958Z,15.10
2019-02-27T20:01:49.029Z,13.98
2019-02-27T20:04:28.296Z,13.65
2019-02-27T20:07:10.698Z,15.50
2019-02-27T20:09:54.504Z,19.57
2019-02-27T20:12:34.794Z,14.75
2019-02-27T20:15:27.695Z,17.52
2019-02-27T20:18:09.085Z,20.37
2019-02-27T20:20:48.297Z,16.85
2019-02-27T20:23:28.597Z,17.65
2019-02-27T20:26:03.968Z,11.93
2019-02-27T20:28:43.273Z,12.45
2019-02-27T20:31:24.881Z,13.70
2019-02-27T20:34:04.901Z,15.93
2019-02-27T20:36:44.068Z,14.20
2019-02-27T20:39:24.736Z,16.90
2019-02-27T20:42:05.771Z,18.07
2019-02-27T20:44:48.213Z,19.40
2019-02-27T20:47:29.178Z,16.87
2019-02-27T20:50:10.126Z,10.25
2019-02-27T20:52:51.176Z,13.10
2019-02-27T20:55:30.838Z,14.47
2019-02-27T20:58:29.310Z,12.93
2019-02-27T21:01:13.662Z,14.53
2019-02-27T21:04:01.469Z,16.00
2019-02-27T21:06:34.384Z,18.95
2019-02-27T21:09:19.843Z,17.55
2019-02-27T21:12:03.469Z,20.10
2019-02-27T21:14:41.714Z,19.92
2019-02-27T21:17:21.741Z,17.15
2019-02-27T21:20:00.418Z,15.48
2019-02-27T21:22:45.283Z,21.90
2019-02-27T21:25:22.116Z,15.10
2019-02-27T21:28:00.869Z,15.65
2019-02-27T21:30:40.617Z,19.48
2019-02-27T21:33:16.690Z,15.65
2019-02-27T21:36:02.869Z,19.40
2019-02-27T21:38:42.223Z,22.80
2019-02-27T21:41:23.980Z,15.68
2019-02-27T21:43:59.322Z,19.42
2019-02-27T21:46:46.227Z,17.55
2019-02-27T21:49:20.623Z,14.47
2019-02-27T21:52:01.156Z,17.30
2019-02-27T21:54:39.430Z,17.30
2019-02-27T21:57:15.895Z,16.25
2019-02-27T21:59:55.494Z,16.75
2019-02-27T22:02:34.355Z,18.75
2019-02-27T22:05:18.912Z,17.12
2019-02-27T22:07:58.216Z,15.65
2019-02-27T22:10:39.252Z,14.58
2019-02-27T22:13:28.613Z,13.08
2019-02-27T22:15:56.667Z,18.60
2019-02-27T22:18:37.602Z,13.28
2019-02-27T22:21:15.497Z,16.50
2019-02-27T22:23:53.332Z,14.30
2019-02-27T22:26:29.731Z,12.65
2019-02-27T22:29:11.784Z,10.90
2019-02-27T22:31:53.534Z,15.15
2019-02-27T22:34:37.233Z,13.98
2019-02-27T22:37:18.657Z,12.95
2019-02-27T22:39:58.465Z,13.93
2019-02-27T22:42:39.604Z,11.15
2019-02-27T22:45:24.812Z,12.65
2019-02-27T22:48:05.803Z,15.15
2019-02-27T22:50:44.876Z,15.65
2019-02-27T22:53:31.339Z,12.53
2019-02-27T22:56:16.225Z,11.25
2019-02-27T22:58:52.188Z,16.23
2019-02-27T23:01:31.513Z,12.23
2019-02-27T23:04:11.439Z,11.38
2019-02-27T23:06:50.042Z,13.80
2019-02-27T23:09:29.644Z,14.28
2019-02-27T23:12:09.236Z,16.27
2019-02-27T23:14:53.779Z,12.20
2019-02-27T23:17:34.045Z,12.03
2019-02-27T23:20:17.414Z,11.10
2019-02-27T23:22:54.725Z,12.70
2019-02-27T23:25:36.298Z,12.63
2019-02-27T23:28:19.826Z,10.30
2019-02-27T23:31:02.507Z,12.43
2019-02-27T23:33:44.250Z,11.95
2019-02-27T23:36:24.554Z,9.78
2019-02-27T23:39:08.752Z,13.28
2019-02-27T23:41:50.752Z,12.78
2019-02-27T23:44:31.755Z,12.55
2019-02-27T23:47:14.855Z,14.75
2019-02-27T23:49:54.494Z,10.82
2019-02-27T23:52:42.340Z,10.35
2019-02-27T23:55:18.001Z,13.93
2019-02-27T23:58:02.184Z,15.15
